createdAt,value
2023-09-10T00:04:02.807Z,100648.66
2023-09-10T00:09:24.817Z,100653.25
2023-09-10T00:14:47.570Z,100666.72
2023-09-10T00:20:12.168Z,100654.34
2023-09-10T00:25:34.576Z,100660.25
2023-09-10T00:30:56.670Z,100658.09
2023-09-10T00:36:18.609Z,100657.53
2023-09-10T00:41:40.449Z,100660.25
2023-09-10T00:47:02.697Z,100653.25
2023-09-10T00:52:27.072Z,100665.31
2023-09-10T00:57:56.263Z,100661.88
2023-09-10T01:03:18.611Z,100660.25
2023-09-10T01:08:40.814Z,100650.78
2023-09-10T01:14:19.171Z,100648.34
2023-09-10T01:19:53.372Z,100642.94
2023-09-10T01:25:16.678Z,100644.59
2023-09-10T01:30:38.606Z,100652.13
2023-09-10T01:36:10.312Z,100655.69
2023-09-10T01:41:33.933Z,100655.41
2023-09-10T01:46:57.181Z,100654.09
2023-09-10T01:52:19.159Z,100655.16
2023-09-10T01:57:41.276Z,100653.84
2023-09-10T02:03:00.639Z,100649.50
2023-09-10T02:08:22.402Z,100648.97
2023-09-10T02:13:45.749Z,100650.38
2023-09-10T02:19:10.016Z,100647.66
2023-09-10T02:24:32.171Z,100658.75
2023-09-10T02:29:54.129Z,100649.56
2023-09-10T02:35:16.474Z,100652.50
2023-09-10T02:40:38.822Z,100664.63
2023-09-10T02:46:00.588Z,100656.03
2023-09-10T02:51:22.591Z,100665.44
2023-09-10T02:56:44.799Z,100659.25
2023-09-10T03:02:06.816Z,100656.56
2023-09-10T03:07:29.003Z,100659.84
2023-09-10T03:12:51.157Z,100661.72
2023-09-10T03:18:13.411Z,100669.00
2023-09-10T03:23:35.800Z,100662.25
2023-09-10T03:28:58.077Z,100670.59
2023-09-10T03:34:21.243Z,100666.06
2023-09-10T03:39:43.514Z,100664.47
2023-09-10T03:45:07.142Z,100670.97
2023-09-10T03:50:29.214Z,100670.16
2023-09-10T03:55:52.178Z,100673.66
2023-09-10T04:01:14.343Z,100676.06
2023-09-10T04:06:36.859Z,100684.97
2023-09-10T04:11:59.501Z,100676.06
2023-09-10T04:17:21.347Z,100673.34
2023-09-10T04:22:43.456Z,100684.16
2023-09-10T04:28:06.954Z,100691.69
2023-09-10T04:33:28.825Z,100685.75
2023-09-10T04:38:50.752Z,100686.81
2023-09-10T04:44:12.951Z,100687.38
2023-09-10T04:49:35.641Z,100675.81
2023-09-10T04:54:57.550Z,100683.03
2023-09-10T05:00:19.793Z,100686.03
2023-09-10T05:05:42.624Z,100682.59
2023-09-10T05:11:04.728Z,100685.78
2023-09-10T05:16:27.573Z,100685.84
2023-09-10T05:21:50.226Z,100678.75
2023-09-10T05:27:12.893Z,100674.94
2023-09-10T05:32:35.961Z,100681.69
2023-09-10T05:37:58.263Z,100682.00
2023-09-10T05:43:22.243Z,100686.94
2023-09-10T05:48:44.798Z,100694.44
2023-09-10T05:54:07.121Z,100692.25
2023-09-10T05:59:29.113Z,100689.03
2023-09-10T06:04:52.058Z,100692.78
2023-09-10T06:10:14.292Z,100682.09
2023-09-10T06:15:36.587Z,100689.28
2023-09-10T06:20:58.777Z,100690.06
2023-09-10T06:26:21.329Z,100678.69
2023-09-10T06:31:43.649Z,100687.31
2023-09-10T06:37:07.327Z,100694.94
2023-09-10T06:42:30.033Z,100689.97
2023-09-10T06:48:05.393Z,100690.03
2023-09-10T06:53:27.522Z,100684.63
2023-09-10T06:58:50.164Z,100686.19
2023-09-10T07:04:26.099Z,100685.63
2023-09-10T07:09:48.102Z,100688.19
2023-09-10T07:15:10.148Z,100691.63
2023-09-10T07:20:31.951Z,100680.47
2023-09-10T07:25:54.084Z,100693.34
2023-09-10T07:31:16.127Z,100688.56
2023-09-10T07:36:39.874Z,100687.28
2023-09-10T07:42:01.722Z,100693.53
2023-09-10T07:47:23.489Z,100693.94
2023-09-10T07:52:45.634Z,100705.50
2023-09-10T07:58:18.248Z,100693.63
2023-09-10T08:03:43.097Z,100696.53
2023-09-10T08:09:07.823Z,100700.88
2023-09-10T08:14:30.942Z,100696.84
2023-09-10T08:19:53.951Z,100698.97
2023-09-10T08:25:15.918Z,100695.97
2023-09-10T08:30:37.626Z,100697.50
2023-09-10T08:35:59.533Z,100689.13
2023-09-10T08:41:30.830Z,100695.09
2023-09-10T08:46:55.473Z,100687.00
2023-09-10T08:52:24.271Z,100688.41
2023-09-10T08:57:47.229Z,100688.34
2023-09-10T09:03:09.437Z,100687.69
2023-09-10T09:08:34.041Z,100680.63
2023-09-10T09:13:58.646Z,100678.22
2023-09-10T09:19:23.035Z,100684.53
2023-09-10T09:24:45.291Z,100674.66
2023-09-10T09:30:08.606Z,100678.31
2023-09-10T09:35:30.463Z,100674.19
2023-09-10T09:40:52.508Z,100671.94
2023-09-10T09:46:14.699Z,100672.88
2023-09-10T09:51:41.783Z,100675.50
2023-09-10T09:57:06.863Z,100675.34
2023-09-10T10:02:30.689Z,100666.31
2023-09-10T10:07:55.197Z,100667.28
2023-09-10T10:13:23.623Z,100669.03
2023-09-10T10:18:46.652Z,100660.97
2023-09-10T10:24:10.055Z,100669.19
2023-09-10T10:29:34.700Z,100662.78
2023-09-10T10:35:01.135Z,100655.22
2023-09-10T10:40:30.235Z,100660.28
2023-09-10T10:45:57.872Z,100645.19
2023-09-10T10:51:20.167Z,100641.66
2023-09-10T10:56:42.777Z,100639.97
2023-09-10T11:02:24.310Z,100644.28
2023-09-10T11:07:47.036Z,100643.56
2023-09-10T11:13:10.973Z,100639.53
2023-09-10T11:18:39.042Z,100638.59
2023-09-10T11:24:15.900Z,100633.88
2023-09-10T11:29:37.928Z,100635.31
2023-09-10T11:35:19.874Z,100631.56
2023-09-10T11:40:42.320Z,100624.38
2023-09-10T11:46:04.436Z,100622.91
2023-09-10T11:51:26.343Z,100625.47
2023-09-10T11:56:53.198Z,100624.28
2023-09-10T12:02:17.693Z,100621.28
2023-09-10T12:07:44.883Z,100618.13
2023-09-10T12:13:09.693Z,100613.69
2023-09-10T12:18:35.020Z,100618.25
2023-09-10T12:23:57.204Z,100606.88
2023-09-10T12:29:19.435Z,100607.09
2023-09-10T12:34:41.575Z,100600.16
2023-09-10T12:40:06.193Z,100604.16
2023-09-10T12:45:28.660Z,100592.50
2023-09-10T12:50:52.258Z,100595.19
2023-09-10T12:56:14.415Z,100590.53
2023-09-10T13:01:40.014Z,100594.38
2023-09-10T13:07:02.615Z,100581.91
2023-09-10T13:12:24.668Z,100576.53
2023-09-10T13:17:46.818Z,100571.22
2023-09-10T13:23:08.845Z,100576.97
2023-09-10T13:28:31.049Z,100571.72
2023-09-10T13:33:53.684Z,100567.00
2023-09-10T13:39:15.879Z,100566.19
2023-09-10T13:44:37.876Z,100570.44
2023-09-10T13:50:03.050Z,100573.78
2023-09-10T13:55:25.691Z,100564.91
2023-09-10T14:00:48.222Z,100565.50
2023-09-10T14:06:10.587Z,100566.28
2023-09-10T14:11:32.737Z,100568.97
2023-09-10T14:16:54.900Z,100564.25
2023-09-10T14:22:16.952Z,100563.66
2023-09-10T14:27:39.000Z,100557.47
2023-09-10T14:33:01.041Z,100552.72
2023-09-10T14:38:23.320Z,100555.38
2023-09-10T14:43:45.494Z,100546.75
2023-09-10T14:49:07.809Z,100557.25
2023-09-10T14:54:32.241Z,100552.72
2023-09-10T14:59:55.010Z,100555.22
2023-09-10T15:05:16.923Z,100558.41
2023-09-10T15:10:38.971Z,100558.97
2023-09-10T15:16:04.835Z,100560.50
2023-09-10T15:21:26.819Z,100557.84
2023-09-10T15:26:48.786Z,100553.53
2023-09-10T15:32:10.692Z,100546.47
2023-09-10T15:37:32.935Z,100564.03
2023-09-10T15:42:54.578Z,100563.59
2023-09-10T15:48:16.629Z,100563.13
2023-09-10T15:53:39.357Z,100559.63
2023-09-10T15:59:01.499Z,100554.47
2023-09-10T16:04:24.170Z,100561.84
2023-09-10T16:09:45.981Z,100556.47
2023-09-10T16:15:08.890Z,100566.41
2023-09-10T16:20:31.190Z,100558.03
2023-09-10T16:25:52.731Z,100554.34
2023-09-10T16:31:14.971Z,100549.03
2023-09-10T16:36:37.827Z,100548.13
2023-09-10T16:42:00.167Z,100537.09
2023-09-10T16:47:22.082Z,100543.88
2023-09-10T16:52:43.757Z,100541.69
2023-09-10T16:58:08.629Z,100535.53
2023-09-10T17:03:31.307Z,100543.38
2023-09-10T17:08:57.548Z,100539.31
2023-09-10T17:14:22.168Z,100540.41
2023-09-10T17:19:44.295Z,100542.59
2023-09-10T17:25:07.725Z,100540.97
2023-09-10T17:30:29.883Z,100544.22
2023-09-10T17:35:52.018Z,100537.75
2023-09-10T17:41:15.774Z,100543.16
2023-09-10T17:46:37.977Z,100552.03
2023-09-10T17:52:00.051Z,100550.47
2023-09-10T17:57:22.682Z,100549.19
2023-09-10T18:02:44.727Z,100538.97
2023-09-10T18:08:07.181Z,100546.50
2023-09-10T18:13:30.671Z,100549.50
2023-09-10T18:18:53.138Z,100553.00
2023-09-10T18:24:15.805Z,100549.53
2023-09-10T18:29:41.490Z,100547.38
2023-09-10T18:35:06.788Z,100543.22
2023-09-10T18:40:28.521Z,100541.69
2023-09-10T18:45:53.831Z,100539.84
2023-09-10T18:51:15.437Z,100536.38
2023-09-10T18:56:37.372Z,100542.59
2023-09-10T19:02:00.171Z,100540.63
2023-09-10T19:07:22.060Z,100540.19
2023-09-10T19:12:45.755Z,100537.47
2023-09-10T19:18:08.090Z,100533.13
2023-09-10T19:23:30.035Z,100524.22
2023-09-10T19:28:52.347Z,100536.97
2023-09-10T19:34:14.992Z,100531.34
2023-09-10T19:39:37.171Z,100525.97
2023-09-10T19:44:59.460Z,100533.69
2023-09-10T19:50:22.533Z,100527.53
2023-09-10T19:55:44.603Z,100532.16
2023-09-10T20:01:06.848Z,100529.47
2023-09-10T20:06:30.696Z,100538.59
2023-09-10T20:11:53.503Z,100532.16
2023-09-10T20:17:15.724Z,100529.91
2023-09-10T20:22:37.720Z,100535.94
2023-09-10T20:27:59.742Z,100546.69
2023-09-10T20:33:21.977Z,100549.91
2023-09-10T20:38:46.700Z,100541.88
2023-09-10T20:44:08.867Z,100537.84
2023-09-10T20:49:31.987Z,100531.91
2023-09-10T20:54:54.014Z,100533.56
2023-09-10T21:00:15.861Z,100532.63
2023-09-10T21:05:37.838Z,100527.94
2023-09-10T21:11:00.274Z,100525.97
2023-09-10T21:16:22.225Z,100522.41
2023-09-10T21:21:44.201Z,100500.97
2023-09-10T21:27:06.547Z,100519.16
2023-09-10T21:32:29.535Z,100523.09
2023-09-10T21:37:51.477Z,100520.81
2023-09-10T21:43:13.720Z,100525.88
2023-09-10T21:48:35.846Z,100523.22
2023-09-10T21:54:01.022Z,100523.66
2023-09-10T21:59:23.380Z,100519.13
2023-09-10T22:04:45.074Z,100518.31
2023-09-10T22:10:07.753Z,100504.47
2023-09-10T22:15:29.746Z,100501.78
2023-09-10T22:20:53.046Z,100503.44
2023-09-10T22:26:14.898Z,100489.41
2023-09-10T22:31:37.027Z,100491.88
2023-09-10T22:37:01.546Z,100496.13
2023-09-10T22:42:23.512Z,100492.91
2023-09-10T22:47:48.134Z,100486.47
2023-09-10T22:53:10.261Z,100488.00
2023-09-10T22:58:32.560Z,100488.41
2023-09-10T23:03:55.146Z,100477.91
2023-09-10T23:09:17.255Z,100478.72
2023-09-10T23:14:39.262Z,100482.47
2023-09-10T23:20:01.399Z,100481.72
2023-09-10T23:25:23.401Z,100481.72
2023-09-10T23:30:45.439Z,100477.38
2023-09-10T23:36:08.013Z,100474.75
2023-09-10T23:41:30.026Z,100463.91
2023-09-10T23:46:53.545Z,100458.53
2023-09-10T23:52:16.026Z,100460.66
2023-09-10T23:57:38.226Z,100453.66
